Time;durP1;ratioP1;P1;durP2;ratioP2;P2;SDS_P1;SDS_P2;PMS_P1;PMS_P2;Temp;Humidity;BMP_temperature;BMP_pressure;BME280_temperature;BME280_humidity;BME280_pressure;Samples;Min_cycle;Max_cycle;Signal;HPM_P1;HPM_P2
2023/05/25 00:00:42;;;;;;;;;;;9.00;92.90;;;;;;5035017;28;20096;-43
2023/05/25 00:03:09;;;;;;;21.42;8.73;;;9.00;93.00;;;;;;5034780;28;19905;-44
2023/05/25 00:05:36;;;;;;;20.15;8.18;;;9.00;92.90;;;;;;5017979;28;20866;-42
2023/05/25 00:08:03;;;;;;;20.92;8.88;;;9.00;92.90;;;;;;5034967;28;20035;-42
2023/05/25 00:10:28;;;;;;;19.58;8.25;;;8.90;92.90;;;;;;5017089;28;20363;-45
2023/05/25 00:12:55;;;;;;;17.20;8.93;;;8.90;92.90;;;;;;5035168;28;20021;-45
2023/05/25 00:15:26;;;;;;;22.85;8.85;;;8.90;92.80;;;;;;5034673;28;20097;-42
2023/05/25 00:17:55;;;;;;;18.60;9.20;;;8.90;92.90;;;;;;5034812;28;20108;-44
2023/05/25 00:20:25;;;;;;;16.50;9.43;;;8.90;92.90;;;;;;5051551;28;20037;-45
2023/05/25 00:22:55;;;;;;;20.90;8.82;;;8.90;93.00;;;;;;5054407;28;20140;-42
2023/05/25 00:25:21;;;;;;;15.50;8.80;;;8.90;93.00;;;;;;5046670;28;20057;-47
2023/05/25 00:27:48;;;;;;;21.65;10.02;;;8.90;93.00;;;;;;5017196;28;20028;-43
2023/05/25 00:30:17;;;;;;;24.20;9.55;;;8.90;93.10;;;;;;5034439;28;20036;-48
2023/05/25 00:32:44;;;;;;;19.50;10.07;;;8.90;93.10;;;;;;5025597;28;20038;-45
2023/05/25 00:35:11;;;;;;;22.75;9.95;;;8.90;93.10;;;;;;5016949;28;20063;-42
2023/05/25 00:37:38;;;;;;;19.00;10.00;;;9.00;93.20;;;;;;5034311;28;20021;-49
2023/05/25 00:40:13;;;;;;;15.60;9.10;;;9.00;93.10;;;;;;5034360;28;20033;-42
2023/05/25 00:42:39;;;;;;;16.38;10.32;;;9.00;93.00;;;;;;5033078;28;20049;-43
2023/05/25 00:45:06;;;;;;;20.42;8.98;;;8.90;92.90;;;;;;5034204;28;20061;-42
2023/05/25 00:47:33;;;;;;;17.02;8.07;;;8.90;92.80;;;;;;5053258;28;20021;-42
2023/05/25 00:50:00;;;;;;;13.73;8.52;;;8.90;92.80;;;;;;5054084;28;20493;-42
2023/05/25 00:52:28;;;;;;;18.08;9.13;;;8.90;92.80;;;;;;5053578;28;20025;-45
2023/05/25 00:54:59;;;;;;;19.63;9.02;;;8.90;92.70;;;;;;5033992;28;20097;-42
2023/05/25 00:57:28;;;;;;;17.67;8.23;;;8.90;92.70;;;;;;5016934;28;20030;-42
2023/05/25 00:59:57;;;;;;;22.05;9.73;;;8.80;92.60;;;;;;5034280;28;20049;-43
2023/05/25 01:02:27;;;;;;;21.38;8.63;;;8.80;92.60;;;;;;5016391;28;20552;-43
2023/05/25 01:04:58;;;;;;;21.10;9.40;;;8.80;92.60;;;;;;5033901;28;20473;-42
2023/05/25 01:07:26;;;;;;;22.95;10.27;;;8.80;92.60;;;;;;5033739;28;20022;-42
2023/05/25 01:09:58;;;;;;;17.38;8.95;;;8.70;92.80;;;;;;5034139;28;20021;-42
2023/05/25 01:12:30;;;;;;;17.45;9.00;;;8.80;92.90;;;;;;5016301;28;20025;-46
2023/05/25 01:15:01;;;;;;;17.35;9.50;;;8.80;92.90;;;;;;5033985;28;20067;-43
2023/05/25 01:17:28;;;;;;;15.85;9.27;;;8.90;93.10;;;;;;5033595;28;20474;-41
2023/05/25 01:19:57;;;;;;;19.10;9.85;;;8.90;93.20;;;;;;5033672;28;20114;-42
2023/05/25 01:22:47;;;;;;;18.33;10.18;;;8.90;93.20;;;;;;5033306;28;20057;-43
2023/05/25 01:25:36;;;;;;;17.08;10.45;;;8.90;93.20;;;;;;5033432;28;20351;-42
2023/05/25 01:28:23;;;;;;;25.98;11.07;;;8.90;93.10;;;;;;5033495;28;20410;-42
2023/05/25 01:30:56;;;;;;;24.40;11.63;;;8.90;93.00;;;;;;5033374;28;20080;-41
2023/05/25 01:33:23;;;;;;;19.25;9.82;;;8.90;93.00;;;;;;5033468;28;20063;-42
2023/05/25 01:35:51;;;;;;;18.73;10.05;;;8.90;93.00;;;;;;5033363;28;20029;-42
2023/05/25 01:38:20;;;;;;;16.33;9.43;;;8.90;93.10;;;;;;5032935;28;20026;-41
2023/05/25 01:40:50;;;;;;;17.70;9.85;;;8.90;93.10;;;;;;5033084;28;20026;-43
2023/05/25 01:43:16;;;;;;;19.42;10.98;;;8.80;93.00;;;;;;5015926;28;20037;-43
2023/05/25 01:45:43;;;;;;;15.45;9.55;;;8.80;93.00;;;;;;5032884;28;20419;-43
2023/05/25 01:48:34;;;;;;;15.95;10.00;;;8.80;93.10;;;;;;5032981;28;20061;-43
2023/05/25 01:51:09;;;;;;;18.90;10.35;;;8.80;93.10;;;;;;5032945;28;20030;-43
2023/05/25 01:53:57;;;;;;;21.50;11.68;;;8.80;93.00;;;;;;5032530;28;20060;-42
2023/05/25 01:56:27;;;;;;;18.45;11.90;;;8.80;92.90;;;;;;5014605;28;20091;-43
2023/05/25 01:58:56;;;;;;;20.38;11.93;;;8.80;93.10;;;;;;5032719;28;20025;-43
2023/05/25 02:01:24;;;;;;;23.48;12.10;;;8.80;93.10;;;;;;5019770;28;20022;-43
2023/05/25 02:03:51;;;;;;;26.90;13.18;;;8.80;93.20;;;;;;5033074;28;20034;-43
2023/05/25 02:06:18;;;;;;;25.45;11.68;;;8.80;93.20;;;;;;5032278;28;20036;-43
2023/05/25 02:08:47;;;;;;;17.23;11.30;;;8.80;93.20;;;;;;5037531;28;20455;-42
2023/05/25 02:11:15;;;;;;;16.98;11.60;;;8.80;93.20;;;;;;5036252;28;20375;-42
2023/05/25 02:13:42;;;;;;;20.42;11.30;;;8.80;93.20;;;;;;5036808;28;20035;-42
2023/05/25 02:16:08;;;;;;;21.20;13.10;;;8.70;93.20;;;;;;5036858;28;20028;-42
2023/05/25 02:18:34;;;;;;;22.77;11.52;;;8.70;93.10;;;;;;5037390;28;20037;-43
2023/05/25 02:21:01;;;;;;;21.88;11.48;;;8.70;93.20;;;;;;5036606;28;20029;-43
2023/05/25 02:23:29;;;;;;;20.65;10.77;;;8.70;93.20;;;;;;5036520;28;20060;-42
2023/05/25 02:25:55;;;;;;;21.40;11.88;;;8.70;93.30;;;;;;5019039;28;20025;-42
2023/05/25 02:28:22;;;;;;;19.02;10.88;;;8.70;93.30;;;;;;5018715;28;20032;-43
2023/05/25 02:30:48;;;;;;;24.55;11.85;;;8.70;93.40;;;;;;5036116;28;20065;-42
2023/05/25 02:33:15;;;;;;;19.55;10.90;;;8.80;93.40;;;;;;5037084;28;20411;-43
2023/05/25 02:35:42;;;;;;;15.88;9.95;;;8.70;93.40;;;;;;5036322;28;20043;-42
2023/05/25 02:38:08;;;;;;;21.10;10.50;;;8.80;93.40;;;;;;5036198;28;20104;-43
2023/05/25 02:40:34;;;;;;;24.13;9.40;;;8.70;93.30;;;;;;5036386;28;20148;-45
2023/05/25 02:43:01;;;;;;;24.38;11.23;;;8.70;93.40;;;;;;5036806;28;20108;-43
2023/05/25 02:45:28;;;;;;;19.85;11.05;;;8.70;93.50;;;;;;5036356;28;20462;-43
2023/05/25 02:47:55;;;;;;;20.02;11.52;;;8.80;93.50;;;;;;5036399;28;20431;-43
2023/05/25 02:50:22;;;;;;;20.33;11.55;;;8.70;93.50;;;;;;5036236;28;20458;-43
2023/05/25 02:52:47;;;;;;;19.45;10.82;;;8.80;93.60;;;;;;5036879;28;20601;-43
2023/05/25 02:55:17;;;;;;;20.25;11.50;;;8.70;93.50;;;;;;5036168;28;20032;-43
2023/05/25 02:57:45;;;;;;;24.60;10.50;;;8.70;93.50;;;;;;5036067;28;20032;-44
2023/05/25 03:00:11;;;;;;;20.25;11.65;;;8.70;93.50;;;;;;5036264;28;20036;-43
2023/05/25 03:02:38;;;;;;;17.08;10.98;;;8.70;93.50;;;;;;5036653;28;20500;-42
2023/05/25 03:05:09;;;;;;;18.30;10.40;;;8.70;93.50;;;;;;5036018;28;20120;-43
2023/05/25 03:07:36;;;;;;;17.30;9.80;;;8.70;93.50;;;;;;5018848;28;20049;-44
2023/05/25 03:10:06;;;;;;;25.98;10.18;;;8.70;93.60;;;;;;5035036;28;20409;-44
2023/05/25 03:12:32;;;;;;;16.67;9.27;;;8.80;93.70;;;;;;5036246;28;20065;-42
2023/05/25 03:14:59;;;;;;;21.88;10.30;;;8.70;93.60;;;;;;5035821;28;20033;-43
2023/05/25 03:17:26;;;;;;;16.63;9.18;;;8.70;93.50;;;;;;5033769;28;20490;-43
2023/05/25 03:19:57;;;;;;;15.82;8.65;;;8.70;93.50;;;;;;5035823;28;20034;-43
2023/05/25 03:22:25;;;;;;;19.63;10.07;;;8.70;93.50;;;;;;5018157;28;20467;-42
2023/05/25 03:24:55;;;;;;;13.88;8.75;;;8.60;93.40;;;;;;5036231;28;20116;-44
2023/05/25 03:27:22;;;;;;;18.73;9.40;;;8.60;93.40;;;;;;5035528;28;20021;-43
2023/05/25 03:29:50;;;;;;;19.23;10.00;;;8.60;93.40;;;;;;5035754;28;20088;-44
2023/05/25 03:32:17;;;;;;;15.60;8.10;;;8.60;93.40;;;;;;5035314;28;20037;-43
2023/05/25 03:34:44;;;;;;;23.42;10.48;;;8.70;93.40;;;;;;5018004;28;20049;-41
2023/05/25 03:37:14;;;;;;;17.60;9.20;;;8.70;93.40;;;;;;5035580;28;20486;-44
2023/05/25 03:39:45;;;;;;;15.10;9.10;;;8.70;93.50;;;;;;5035380;28;20025;-43
2023/05/25 03:42:12;;;;;;;17.85;9.45;;;8.70;93.60;;;;;;5035428;28;20033;-42
2023/05/25 03:44:38;;;;;;;20.17;9.25;;;8.80;93.60;;;;;;5035140;28;20056;-43
2023/05/25 03:47:05;;;;;;;16.40;8.68;;;8.80;93.70;;;;;;5035275;28;20072;-42
2023/05/25 03:49:35;;;;;;;16.70;8.43;;;8.90;93.70;;;;;;5034926;28;20030;-42
2023/05/25 03:52:02;;;;;;;16.52;8.63;;;8.90;93.60;;;;;;5018115;28;20048;-42
2023/05/25 03:54:29;;;;;;;13.60;8.23;;;8.90;93.60;;;;;;5035053;28;20048;-44
2023/05/25 03:56:59;;;;;;;15.15;8.10;;;8.90;93.50;;;;;;5035163;28;20021;-43
2023/05/25 03:59:26;;;;;;;13.70;9.15;;;8.80;93.50;;;;;;5035608;28;20065;-42
2023/05/25 04:01:55;;;;;;;14.73;8.68;;;8.80;93.40;;;;;;5035645;28;20090;-42
2023/05/25 04:04:21;;;;;;;15.77;8.18;;;8.90;93.50;;;;;;5034898;28;20037;-43
2023/05/25 04:06:48;;;;;;;14.98;8.70;;;8.90;93.60;;;;;;5034977;28;20029;-42
2023/05/25 04:09:15;;;;;;;16.40;8.65;;;8.90;93.60;;;;;;5034748;28;20463;-42
2023/05/25 04:11:44;;;;;;;17.38;8.68;;;8.90;93.60;;;;;;5034892;28;20069;-46
2023/05/25 04:14:11;;;;;;;19.02;9.32;;;8.90;93.70;;;;;;5034760;28;20025;-42
2023/05/25 04:16:40;;;;;;;18.95;9.10;;;9.00;93.70;;;;;;5034609;28;20153;-43
2023/05/25 04:19:07;;;;;;;17.45;8.93;;;9.10;93.90;;;;;;5034569;28;20036;-42
2023/05/25 04:21:35;;;;;;;27.75;9.43;;;9.10;94.00;;;;;;5034870;28;20037;-42
2023/05/25 04:24:00;;;;;;;29.25;9.27;;;9.20;94.10;;;;;;5034190;28;20061;-44
2023/05/25 04:26:27;;;;;;;17.63;8.55;;;9.30;94.20;;;;;;5017339;28;20029;-42
2023/05/25 04:28:56;;;;;;;13.30;7.80;;;9.40;94.30;;;;;;5034127;28;20083;-42
2023/05/25 04:31:23;;;;;;;20.92;8.52;;;9.40;94.30;;;;;;5016567;28;20026;-43
2023/05/25 04:33:50;;;;;;;19.58;8.27;;;9.50;94.40;;;;;;5035030;28;20471;-43
2023/05/25 04:36:17;;;;;;;25.33;8.80;;;9.60;94.50;;;;;;5034152;28;20478;-43
2023/05/25 04:38:46;;;;;;;31.40;11.52;;;9.80;94.50;;;;;;5034155;28;20045;-44
2023/05/25 04:41:14;;;;;;;28.30;9.90;;;9.80;94.60;;;;;;5017656;28;20417;-42
2023/05/25 04:43:44;;;;;;;24.38;10.82;;;9.90;94.60;;;;;;5034383;28;20037;-43
2023/05/25 04:46:15;;;;;;;19.63;9.35;;;9.90;94.60;;;;;;5034292;28;20021;-42
2023/05/25 04:48:42;;;;;;;20.38;8.52;;;10.10;94.60;;;;;;5034184;28;20087;-42
2023/05/25 04:51:10;;;;;;;27.23;8.75;;;10.20;94.50;;;;;;5033510;28;20032;-44
2023/05/25 04:53:37;;;;;;;22.70;7.80;;;10.20;94.30;;;;;;5033448;28;20435;-43
2023/05/25 04:56:04;;;;;;;21.27;6.93;;;10.20;94.10;;;;;;5033538;28;20077;-42
2023/05/25 04:58:31;;;;;;;22.92;7.53;;;10.20;93.90;;;;;;5033043;28;20348;-42
2023/05/25 05:00:58;;;;;;;22.23;6.32;;;10.30;93.70;;;;;;5032997;28;20036;-42
2023/05/25 05:03:25;;;;;;;22.73;7.30;;;10.30;93.30;;;;;;5034039;28;20141;-42
2023/05/25 05:05:52;;;;;;;23.33;7.57;;;10.30;93.00;;;;;;5034082;28;20041;-43
2023/05/25 05:08:19;;;;;;;21.90;5.90;;;10.30;92.70;;;;;;5033749;28;20483;-42
2023/05/25 05:10:48;;;;;;;22.85;6.78;;;10.40;92.60;;;;;;5016003;28;20405;-42
2023/05/25 05:13:15;;;;;;;18.37;6.30;;;10.40;92.20;;;;;;5033643;28;20075;-42
2023/05/25 05:15:41;;;;;;;22.38;6.63;;;10.50;92.00;;;;;;5033990;28;20089;-42
2023/05/25 05:18:08;;;;;;;22.70;6.40;;;10.60;91.60;;;;;;5033458;28;20104;-42
2023/05/25 05:20:34;;;;;;;22.92;5.22;;;10.60;91.00;;;;;;5033288;28;20422;-42
2023/05/25 05:23:00;;;;;;;27.67;7.30;;;10.60;90.30;;;;;;5033375;28;20057;-41
2023/05/25 05:25:26;;;;;;;24.25;6.03;;;10.60;89.20;;;;;;5015908;28;20029;-42
2023/05/25 05:27:53;;;;;;;25.17;7.13;;;10.60;88.80;;;;;;5033747;28;20347;-42
2023/05/25 05:30:19;;;;;;;19.95;5.78;;;10.70;88.50;;;;;;5033231;28;20033;-42
2023/05/25 05:32:45;;;;;;;19.52;6.38;;;10.80;88.20;;;;;;5032423;28;20025;-44
2023/05/25 05:35:12;;;;;;;29.80;7.78;;;10.90;88.20;;;;;;5033334;28;20080;-42
2023/05/25 05:37:37;;;;;;;20.58;6.30;;;11.00;88.10;;;;;;5032262;28;20041;-42
2023/05/25 05:40:03;;;;;;;25.00;7.30;;;11.00;87.60;;;;;;5026703;28;20025;-42
2023/05/25 05:42:30;;;;;;;20.67;7.63;;;11.00;87.20;;;;;;5033281;28;20044;-42
2023/05/25 05:44:56;;;;;;;28.20;7.07;;;11.10;86.90;;;;;;5033105;28;20057;-41
2023/05/25 05:47:24;;;;;;;18.88;5.78;;;11.20;85.80;;;;;;5032688;28;20063;-41
2023/05/25 05:49:51;;;;;;;24.13;6.60;;;11.40;85.30;;;;;;5033243;28;20034;-42
2023/05/25 05:52:18;;;;;;;24.27;5.97;;;11.50;84.60;;;;;;5032082;28;20037;-43
2023/05/25 05:54:44;;;;;;;21.45;6.18;;;11.50;84.50;;;;;;5033587;28;20360;-41
2023/05/25 05:57:13;;;;;;;26.67;6.28;;;11.40;83.90;;;;;;5032643;28;20463;-42
2023/05/25 05:59:43;;;;;;;27.45;8.13;;;11.40;84.40;;;;;;5032738;28;20042;-41
2023/05/25 06:02:10;;;;;;;24.25;7.53;;;11.30;84.60;;;;;;5033354;28;20437;-43
2023/05/25 06:04:37;;;;;;;24.45;6.60;;;11.30;84.20;;;;;;5033338;28;20040;-45
2023/05/25 06:07:04;;;;;;;26.75;6.82;;;11.40;84.90;;;;;;5033094;28;20346;-41
2023/05/25 06:09:30;;;;;;;31.33;7.68;;;11.50;84.30;;;;;;5032601;28;20037;-45
2023/05/25 06:11:57;;;;;;;21.45;6.45;;;11.60;84.30;;;;;;5033094;28;20065;-43
2023/05/25 06:14:23;;;;;;;26.80;6.07;;;11.80;84.30;;;;;;5032920;28;20021;-43
2023/05/25 06:16:50;;;;;;;27.90;6.45;;;11.70;83.70;;;;;;5032796;28;20036;-44
2023/05/25 06:19:19;;;;;;;23.05;6.10;;;11.70;83.80;;;;;;5032932;28;20029;-43
2023/05/25 06:21:46;;;;;;;34.70;8.40;;;11.70;83.80;;;;;;5033151;28;20061;-43
2023/05/25 06:24:14;;;;;;;23.77;7.43;;;11.70;83.50;;;;;;5032718;28;20033;-42
2023/05/25 06:26:40;;;;;;;24.67;7.00;;;11.80;83.40;;;;;;5032713;28;20044;-42
2023/05/25 06:29:07;;;;;;;20.20;5.85;;;11.90;83.80;;;;;;5015617;28;20025;-42
2023/05/25 06:31:33;;;;;;;33.33;8.82;;;11.90;83.60;;;;;;5032746;28;20099;-42
2023/05/25 06:34:00;;;;;;;24.58;5.32;;;11.90;83.60;;;;;;5032611;28;20040;-43
2023/05/25 06:36:26;;;;;;;29.70;7.90;;;12.00;82.30;;;;;;5031441;28;20035;-44
2023/05/25 06:38:53;;;;;;;18.75;5.75;;;12.00;82.60;;;;;;5030206;28;20378;-43
2023/05/25 06:41:21;;;;;;;27.08;8.30;;;11.90;82.00;;;;;;5032685;28;20030;-44
2023/05/25 06:43:47;;;;;;;33.92;7.80;;;12.10;82.60;;;;;;5032513;28;20040;-43
2023/05/25 06:46:16;;;;;;;20.58;5.82;;;12.30;82.40;;;;;;5032516;28;20363;-44
2023/05/25 06:48:44;;;;;;;28.50;6.72;;;12.40;81.00;;;;;;5032438;28;20033;-45
2023/05/25 06:51:11;;;;;;;27.50;7.03;;;12.50;81.50;;;;;;5032585;28;20017;-44
2023/05/25 06:53:41;;;;;;;27.08;7.15;;;12.50;79.80;;;;;;5032896;28;20477;-43
2023/05/25 06:56:07;;;;;;;29.75;8.05;;;12.40;79.30;;;;;;5018721;28;20033;-44
2023/05/25 06:58:34;;;;;;;23.33;6.93;;;12.60;80.60;;;;;;5035945;28;20038;-44
2023/05/25 07:01:01;;;;;;;29.90;6.75;;;12.80;80.10;;;;;;5018958;28;20025;-44
2023/05/25 07:03:28;;;;;;;24.40;6.57;;;12.80;79.30;;;;;;5036931;28;20060;-44
2023/05/25 07:05:55;;;;;;;27.35;7.85;;;13.20;80.40;;;;;;5035861;28;20422;-48
2023/05/25 07:08:22;;;;;;;28.73;7.75;;;13.50;79.20;;;;;;5018458;28;20040;-45
2023/05/25 07:10:49;;;;;;;18.70;6.93;;;13.80;78.90;;;;;;5035937;28;20083;-48
2023/05/25 07:13:16;;;;;;;24.77;7.38;;;13.80;76.50;;;;;;5018690;28;20032;-46
2023/05/25 07:15:43;;;;;;;28.35;7.43;;;13.70;76.80;;;;;;5035651;28;20040;-47
2023/05/25 07:18:11;;;;;;;23.92;7.65;;;13.70;78.10;;;;;;5035885;28;20056;-45
2023/05/25 07:20:40;;;;;;;22.08;6.53;;;13.90;78.00;;;;;;5035936;28;20026;-46
2023/05/25 07:23:11;;;;;;;27.30;7.70;;;14.00;76.30;;;;;;5035043;28;20050;-45
2023/05/25 07:25:40;;;;;;;28.17;7.07;;;13.80;75.30;;;;;;5035239;28;20033;-45
2023/05/25 07:28:07;;;;;;;30.48;7.50;;;13.40;75.70;;;;;;5034576;28;20024;-45
2023/05/25 07:30:34;;;;;;;27.33;7.00;;;13.20;77.10;;;;;;5034913;28;20029;-48
2023/05/25 07:33:00;;;;;;;28.73;7.60;;;13.10;77.50;;;;;;5035933;28;20033;-45
2023/05/25 07:35:27;;;;;;;26.80;8.38;;;13.10;76.50;;;;;;5035213;28;20033;-49
2023/05/25 07:38:04;;;;;;;24.85;7.10;;;13.00;75.70;;;;;;5035667;28;20021;-46
2023/05/25 07:40:30;;;;;;;19.27;6.43;;;13.10;75.70;;;;;;5035795;28;20034;-45
2023/05/25 07:43:01;;;;;;;27.15;7.18;;;13.00;75.90;;;;;;5035302;28;20028;-47
2023/05/25 07:45:26;;;;;;;28.42;7.47;;;13.10;75.80;;;;;;5034970;28;20029;-49
2023/05/25 07:47:55;;;;;;;22.30;7.78;;;13.10;76.30;;;;;;5017762;28;20034;-46
2023/05/25 07:50:22;;;;;;;24.50;7.10;;;13.20;77.30;;;;;;5035193;28;20056;-45
2023/05/25 07:52:49;;;;;;;23.55;6.88;;;13.40;76.50;;;;;;5035310;28;20033;-46
2023/05/25 07:55:18;;;;;;;25.95;6.95;;;13.80;74.40;;;;;;5017743;28;20025;-45
2023/05/25 07:57:45;;;;;;;27.48;7.03;;;14.00;72.60;;;;;;5035548;28;20025;-45
2023/05/25 08:00:14;;;;;;;29.95;9.02;;;13.90;73.10;;;;;;5034015;28;20036;-46
2023/05/25 08:02:42;;;;;;;34.85;7.82;;;13.80;73.80;;;;;;5035128;28;20451;-45
2023/05/25 08:05:10;;;;;;;29.80;7.53;;;13.80;73.70;;;;;;5034651;28;20044;-46
2023/05/25 08:07:37;;;;;;;20.92;7.35;;;13.90;73.90;;;;;;5035006;28;20103;-45
2023/05/25 08:10:05;;;;;;;26.30;6.50;;;14.10;73.50;;;;;;5034279;28;20037;-45
2023/05/25 08:12:32;;;;;;;25.77;6.88;;;14.40;70.80;;;;;;5034251;28;20025;-46
2023/05/25 08:14:58;;;;;;;20.77;7.53;;;14.40;71.10;;;;;;5034335;28;20014;-46
2023/05/25 08:17:24;;;;;;;29.50;6.78;;;14.30;71.40;;;;;;5034449;28;20410;-46
2023/05/25 08:19:52;;;;;;;32.47;8.18;;;14.10;71.90;;;;;;5017742;28;20031;-49
2023/05/25 08:22:19;;;;;;;30.50;6.10;;;13.80;71.90;;;;;;5034510;28;20049;-48
2023/05/25 08:24:48;;;;;;;25.00;7.28;;;13.60;72.20;;;;;;5034518;28;20032;-47
2023/05/25 08:27:15;;;;;;;18.08;7.03;;;13.60;72.30;;;;;;5034571;28;20033;-45
2023/05/25 08:29:44;;;;;;;25.75;7.13;;;13.60;72.60;;;;;;5034371;28;20339;-46
2023/05/25 08:32:12;;;;;;;24.92;6.78;;;13.60;73.40;;;;;;5035107;28;20099;-47
2023/05/25 08:34:39;;;;;;;30.08;8.38;;;13.50;72.20;;;;;;5034202;28;20122;-45
2023/05/25 08:37:08;;;;;;;27.48;7.15;;;13.50;73.20;;;;;;5034112;28;20033;-45
2023/05/25 08:39:35;;;;;;;31.67;8.23;;;13.70;74.50;;;;;;5034703;28;20030;-45
2023/05/25 08:42:05;;;;;;;25.63;7.40;;;13.90;74.90;;;;;;5034167;28;20075;-49
2023/05/25 08:44:35;;;;;;;28.25;7.85;;;14.00;73.20;;;;;;5034027;28;20022;-47
2023/05/25 08:47:08;;;;;;;25.40;7.10;;;14.20;72.30;;;;;;5032452;28;20132;-45
2023/05/25 08:49:37;;;;;;;21.27;7.57;;;14.30;70.50;;;;;;5034225;28;20044;-47
2023/05/25 08:52:07;;;;;;;23.30;6.47;;;14.40;69.90;;;;;;5034132;28;20029;-45
2023/05/25 08:54:40;;;;;;;20.23;6.82;;;14.50;68.60;;;;;;5034430;28;20026;-46
2023/05/25 08:57:20;;;;;;;26.45;6.72;;;14.40;68.50;;;;;;5033816;28;20367;-45
2023/05/25 09:00:23;;;;;;;23.77;7.22;;;14.50;68.40;;;;;;5033932;28;20431;-46
2023/05/25 09:02:52;;;;;;;22.73;7.38;;;14.70;68.90;;;;;;5033695;28;20140;-48
2023/05/25 09:05:19;;;;;;;21.40;6.82;;;14.90;67.50;;;;;;5033868;28;20431;-45
2023/05/25 09:07:47;;;;;;;27.05;6.45;;;14.90;66.40;;;;;;5000566;28;20036;-45
2023/05/25 09:10:16;;;;;;;27.40;8.05;;;14.90;67.80;;;;;;5033985;28;20029;-46
2023/05/25 09:12:43;;;;;;;21.75;6.50;;;14.70;65.90;;;;;;5032546;28;20470;-45
2023/05/25 09:15:11;;;;;;;20.70;7.13;;;14.90;67.40;;;;;;5033130;28;20037;-45
2023/05/25 09:17:37;;;;;;;21.08;6.47;;;15.00;66.40;;;;;;5033579;28;20021;-45
2023/05/25 09:20:05;;;;;;;21.33;6.28;;;15.40;65.00;;;;;;5033324;28;20076;-46
2023/05/25 09:22:32;;;;;;;21.17;5.80;;;15.60;62.70;;;;;;5033244;28;20042;-45
2023/05/25 09:24:59;;;;;;;20.90;5.93;;;15.10;63.20;;;;;;5019360;28;20343;-46
2023/05/25 09:27:26;;;;;;;19.38;6.32;;;15.80;62.50;;;;;;5053218;28;20474;-48
2023/05/25 09:29:52;;;;;;;22.08;5.43;;;16.30;62.40;;;;;;5039496;28;20359;-47
2023/05/25 09:32:19;;;;;;;28.17;7.57;;;16.10;62.00;;;;;;5033578;28;20037;-46
2023/05/25 09:34:47;;;;;;;22.48;7.40;;;15.60;63.20;;;;;;5033723;28;20021;-46
2023/05/25 09:37:15;;;;;;;18.95;6.32;;;15.00;65.30;;;;;;5015840;28;20048;-48
2023/05/25 09:39:46;;;;;;;22.98;6.93;;;14.70;67.70;;;;;;5033225;28;20075;-46
2023/05/25 09:42:13;;;;;;;26.27;7.18;;;14.40;69.10;;;;;;5016179;28;20518;-47
2023/05/25 09:44:41;;;;;;;25.35;7.35;;;14.10;70.30;;;;;;5032413;28;20041;-46
2023/05/25 09:47:08;;;;;;;24.98;7.20;;;13.90;70.20;;;;;;5033084;28;20091;-45
2023/05/25 09:49:37;;;;;;;27.98;8.70;;;13.90;69.40;;;;;;5032869;28;20034;-46
2023/05/25 09:52:05;;;;;;;21.50;7.00;;;14.50;70.70;;;;;;5033466;28;20048;-46
2023/05/25 09:54:32;;;;;;;23.73;6.38;;;15.40;67.40;;;;;;5033160;28;20328;-45
2023/05/25 09:57:01;;;;;;;26.20;8.15;;;15.40;66.00;;;;;;5032685;28;20021;-46
2023/05/25 09:59:28;;;;;;;23.75;6.68;;;15.20;65.40;;;;;;5031065;28;20359;-48
2023/05/25 10:01:58;;;;;;;27.35;7.07;;;14.90;68.40;;;;;;5052088;28;20032;-46
2023/05/25 10:04:24;;;;;;;23.73;7.00;;;14.60;68.20;;;;;;5052427;28;20039;-45
2023/05/25 10:06:53;;;;;;;26.67;8.25;;;14.70;69.10;;;;;;5048588;28;20041;-47
2023/05/25 10:09:21;;;;;;;25.55;7.82;;;14.70;68.40;;;;;;5032252;28;20033;-45
2023/05/25 10:11:51;;;;;;;21.88;7.22;;;14.90;67.50;;;;;;5032346;28;20065;-45
2023/05/25 10:14:24;;;;;;;26.40;6.68;;;15.00;66.30;;;;;;5032352;28;20082;-45
2023/05/25 10:17:01;;;;;;;21.67;6.65;;;15.00;66.10;;;;;;5032486;28;20061;-47
2023/05/25 10:19:52;;;;;;;22.15;5.70;;;14.90;64.20;;;;;;5032685;28;20108;-46
2023/05/25 10:22:43;;;;;;;18.85;7.93;;;15.00;64.20;;;;;;5032875;28;20038;-46
2023/05/25 10:25:37;;;;;;;19.02;7.10;;;15.70;63.00;;;;;;5032967;28;20108;-46
2023/05/25 10:28:15;;;;;;;25.50;7.60;;;15.80;61.70;;;;;;5034491;28;20033;-46
2023/05/25 10:30:42;;;;;;;24.15;7.90;;;15.90;63.70;;;;;;5036806;28;20029;-46
2023/05/25 10:33:09;;;;;;;33.92;10.35;;;15.80;64.50;;;;;;5036712;28;20387;-46
2023/05/25 10:35:38;;;;;;;29.10;8.27;;;15.40;66.30;;;;;;5056237;28;20099;-45
2023/05/25 10:38:07;;;;;;;34.57;9.40;;;15.10;66.70;;;;;;5056696;28;20493;-46
2023/05/25 10:40:34;;;;;;;25.90;6.55;;;14.80;66.50;;;;;;5041039;28;20024;-46
2023/05/25 10:43:02;;;;;;;25.52;7.78;;;14.60;67.60;;;;;;5035439;28;20083;-49
2023/05/25 10:45:29;;;;;;;35.25;9.43;;;14.70;67.40;;;;;;5036645;28;20362;-45
2023/05/25 10:47:56;;;;;;;24.20;7.00;;;14.80;66.50;;;;;;5036430;28;20443;-47
2023/05/25 10:50:27;;;;;;;23.48;6.63;;;15.00;66.10;;;;;;5036047;28;20029;-46
2023/05/25 10:53:05;;;;;;;31.35;7.35;;;15.00;64.30;;;;;;5036137;28;20481;-46
2023/05/25 10:55:50;;;;;;;29.88;8.00;;;15.20;65.00;;;;;;5036196;28;20025;-46
2023/05/25 10:58:18;;;;;;;26.73;8.25;;;15.30;64.40;;;;;;5036405;28;20026;-46
2023/05/25 11:01:09;;;;;;;25.20;6.65;;;15.50;64.30;;;;;;5018059;28;20052;-45
2023/05/25 11:03:53;;;;;;;19.50;6.10;;;15.40;63.50;;;;;;5028933;28;20359;-48
2023/05/25 11:06:21;;;;;;;23.60;6.95;;;15.60;63.90;;;;;;5036086;28;20021;-46
2023/05/25 11:08:58;;;;;;;28.77;6.75;;;15.50;63.50;;;;;;5036471;28;20025;-46
2023/05/25 11:11:43;;;;;;;23.75;6.97;;;15.50;61.70;;;;;;5034946;28;20038;-46
2023/05/25 11:14:28;;;;;;;27.13;8.40;;;15.60;62.20;;;;;;5036274;28;20492;-45
2023/05/25 11:17:10;;;;;;;29.50;7.13;;;15.70;62.10;;;;;;5035918;28;20586;-47
2023/05/25 11:19:43;;;;;;;20.13;7.00;;;15.90;61.50;;;;;;5034183;28;20083;-46
2023/05/25 11:22:17;;;;;;;25.30;6.80;;;15.70;61.80;;;;;;5035471;28;20044;-46
2023/05/25 11:24:50;;;;;;;28.38;8.02;;;15.60;63.80;;;;;;5035650;28;20063;-46
2023/05/25 11:27:28;;;;;;;26.75;8.00;;;15.20;64.40;;;;;;5035744;28;20037;-46
2023/05/25 11:29:58;;;;;;;32.13;7.43;;;15.10;65.30;;;;;;5035185;28;20491;-46
2023/05/25 11:32:25;;;;;;;;;;;15.20;64.10;;;;;;5020029;28;20124;-46
2023/05/25 11:34:53;;;;;;;22.30;7.38;;;15.30;64.20;;;;;;5035399;28;20018;-46
2023/05/25 11:37:23;;;;;;;21.55;6.95;;;15.20;63.10;;;;;;5033731;28;20108;-46
2023/05/25 11:39:53;;;;;;;32.03;7.15;;;15.20;63.60;;;;;;5035115;28;20025;-45
2023/05/25 11:42:22;;;;;;;27.20;8.40;;;15.30;62.20;;;;;;5035386;28;20352;-47
2023/05/25 11:44:50;;;;;;;25.00;7.43;;;15.70;63.80;;;;;;5035989;28;20037;-46
2023/05/25 11:47:21;;;;;;;23.40;6.50;;;15.90;60.60;;;;;;5035293;28;20467;-46
2023/05/25 11:49:48;;;;;;;22.40;7.90;;;16.20;62.60;;;;;;5035093;28;20057;-46
2023/05/25 11:52:20;;;;;;;25.13;6.75;;;16.30;62.00;;;;;;5035450;28;20047;-46
2023/05/25 11:54:48;;;;;;;25.08;7.70;;;16.00;60.60;;;;;;5035192;28;20017;-46
2023/05/25 11:57:25;;;;;;;27.10;7.05;;;15.90;63.90;;;;;;5035261;28;20374;-46
2023/05/25 11:59:56;;;;;;;26.23;6.95;;;15.60;63.30;;;;;;5034985;28;20462;-46
2023/05/25 12:02:25;;;;;;;25.40;8.30;;;15.40;63.60;;;;;;5033430;28;20379;-48
2023/05/25 12:05:02;;;;;;;27.77;7.72;;;15.40;63.10;;;;;;5035543;28;20473;-46
2023/05/25 12:07:33;;;;;;;23.92;6.20;;;15.50;64.50;;;;;;5034930;28;20447;-46
2023/05/25 12:10:12;;;;;;;24.45;7.32;;;15.20;64.30;;;;;;5034914;28;20033;-45
2023/05/25 12:12:44;;;;;;;20.30;7.40;;;15.20;64.80;;;;;;5017576;28;20049;-46
2023/05/25 12:15:23;;;;;;;29.38;8.05;;;15.50;64.10;;;;;;5050789;28;20032;-46
2023/05/25 12:17:49;;;;;;;23.30;7.30;;;15.90;64.00;;;;;;5051549;28;20048;-46
2023/05/25 12:20:18;;;;;;;22.33;5.63;;;15.70;61.90;;;;;;5034335;28;20514;-46
2023/05/25 12:22:45;;;;;;;23.20;6.88;;;15.70;62.90;;;;;;5033345;28;20049;-46
2023/05/25 12:25:14;;;;;;;22.83;6.25;;;15.70;62.60;;;;;;5034515;28;20033;-46
2023/05/25 12:27:42;;;;;;;18.83;7.45;;;15.80;62.20;;;;;;5034565;28;20083;-48
2023/05/25 12:30:10;;;;;;;24.52;7.25;;;15.70;60.50;;;;;;5034556;28;20025;-46
2023/05/25 12:33:06;;;;;;;24.63;7.80;;;15.50;61.10;;;;;;5034508;28;20350;-48
2023/05/25 12:35:49;;;;;;;22.90;7.20;;;15.50;63.70;;;;;;5024347;28;20447;-46
2023/05/25 12:38:18;;;;;;;21.13;6.22;;;15.50;61.80;;;;;;5035226;28;20347;-46
2023/05/25 12:40:46;;;;;;;26.88;8.48;;;15.40;62.40;;;;;;5034091;28;20025;-46
2023/05/25 12:43:14;;;;;;;21.90;5.88;;;15.50;62.10;;;;;;5033828;28;20029;-49
2023/05/25 12:45:42;;;;;;;24.88;7.43;;;15.40;62.80;;;;;;5016688;28;20044;-46
2023/05/25 12:48:09;;;;;;;20.08;7.07;;;15.30;62.40;;;;;;5033432;28;20458;-46
2023/05/25 12:50:36;;;;;;;21.90;6.32;;;15.10;63.30;;;;;;5032728;28;20025;-46